createdAt,value
2022-10-13T00:00:05.631Z,8.70
2022-10-13T00:02:08.477Z,8.70
2022-10-13T00:04:12.658Z,8.70
2022-10-13T00:06:16.215Z,8.70
2022-10-13T00:08:20.466Z,8.80
2022-10-13T00:10:23.341Z,8.80
2022-10-13T00:12:26.239Z,8.90
2022-10-13T00:14:29.069Z,8.90
2022-10-13T00:16:32.269Z,8.80
2022-10-13T00:18:35.108Z,8.80
2022-10-13T00:20:42.177Z,8.80
2022-10-13T00:22:45.054Z,8.80
2022-10-13T00:24:51.750Z,8.80
2022-10-13T00:26:54.588Z,8.80
2022-10-13T00:28:57.645Z,8.80
2022-10-13T00:31:00.568Z,8.80
2022-10-13T00:33:03.423Z,8.80
2022-10-13T00:35:06.803Z,8.80
2022-10-13T00:37:10.995Z,8.80
2022-10-13T00:39:13.819Z,8.80
2022-10-13T00:41:16.928Z,8.80
2022-10-13T00:43:20.340Z,8.80
2022-10-13T00:45:24.551Z,8.70
2022-10-13T00:47:27.788Z,8.70
2022-10-13T00:49:30.620Z,8.70
2022-10-13T00:51:34.998Z,8.70
2022-10-13T00:53:39.539Z,8.70
2022-10-13T00:55:42.402Z,8.80
2022-10-13T00:57:45.401Z,8.80
2022-10-13T00:59:48.609Z,8.80
2022-10-13T01:01:51.537Z,8.80
2022-10-13T01:03:54.380Z,8.80
2022-10-13T01:05:58.002Z,8.80
2022-10-13T01:08:00.871Z,8.80
2022-10-13T01:10:05.394Z,8.80
2022-10-13T01:12:11.693Z,8.80
2022-10-13T01:14:19.311Z,8.80
2022-10-13T01:16:25.338Z,8.80
2022-10-13T01:18:31.269Z,8.80
2022-10-13T01:20:49.437Z,8.70
2022-10-13T01:23:01.028Z,8.70
2022-10-13T01:25:10.369Z,8.70
2022-10-13T01:27:41.024Z,8.70
2022-10-13T01:30:16.708Z,8.70
2022-10-13T01:32:22.120Z,8.70
2022-10-13T01:34:27.507Z,8.70
2022-10-13T01:36:32.882Z,8.70
2022-10-13T01:38:38.525Z,8.70
2022-10-13T01:40:43.624Z,8.70
2022-10-13T01:42:54.462Z,8.70
2022-10-13T01:44:59.797Z,8.60
2022-10-13T01:47:04.148Z,8.60
2022-10-13T01:49:08.416Z,8.60
2022-10-13T01:51:12.759Z,8.50
2022-10-13T01:53:16.581Z,8.50
2022-10-13T01:55:19.412Z,8.50
2022-10-13T01:57:31.131Z,8.40
2022-10-13T01:59:36.239Z,8.40
2022-10-13T02:01:46.575Z,8.40
2022-10-13T02:03:55.121Z,8.40
2022-10-13T02:06:02.173Z,8.40
2022-10-13T02:08:09.631Z,8.40
2022-10-13T02:10:14.961Z,8.50
2022-10-13T02:12:19.904Z,8.50
2022-10-13T02:14:24.475Z,8.50
2022-10-13T02:16:28.223Z,8.50
2022-10-13T02:18:32.637Z,8.50
2022-10-13T02:20:37.457Z,8.60
2022-10-13T02:22:42.773Z,8.60
2022-10-13T02:24:45.612Z,8.70
2022-10-13T02:26:48.479Z,8.60
2022-10-13T02:28:51.389Z,8.60
2022-10-13T02:30:54.260Z,8.60
2022-10-13T02:32:57.292Z,8.60
2022-10-13T02:35:00.162Z,8.60
2022-10-13T02:37:04.385Z,8.60
2022-10-13T02:39:07.334Z,8.50
2022-10-13T02:41:10.156Z,8.40
2022-10-13T02:43:13.025Z,8.40
2022-10-13T02:45:15.992Z,8.40
2022-10-13T02:47:19.160Z,8.40
2022-10-13T02:49:21.996Z,8.40
2022-10-13T02:51:24.849Z,8.40
2022-10-13T02:53:29.030Z,8.40
2022-10-13T02:55:31.849Z,8.40
2022-10-13T02:57:35.091Z,8.40
2022-10-13T02:59:37.933Z,8.30
2022-10-13T03:01:42.096Z,8.30
2022-10-13T03:03:44.916Z,8.30
2022-10-13T03:05:47.753Z,8.40
2022-10-13T03:07:50.764Z,8.40
2022-10-13T03:09:55.184Z,8.40
2022-10-13T03:11:58.409Z,8.50
2022-10-13T03:14:01.421Z,8.50
2022-10-13T03:16:04.268Z,8.60
2022-10-13T03:18:07.219Z,8.60
2022-10-13T03:20:11.178Z,8.70
2022-10-13T03:22:15.458Z,8.60
2022-10-13T03:24:18.501Z,8.70
2022-10-13T03:26:22.709Z,8.60
2022-10-13T03:28:25.677Z,8.70
2022-10-13T03:30:29.030Z,8.60
2022-10-13T03:32:31.962Z,8.60
2022-10-13T03:34:34.798Z,8.60
2022-10-13T03:36:37.635Z,8.60
2022-10-13T03:38:40.666Z,8.70
2022-10-13T03:40:43.636Z,8.70
2022-10-13T03:42:47.861Z,8.70
2022-10-13T03:44:55.939Z,8.70
2022-10-13T03:46:59.327Z,8.70
2022-10-13T03:49:02.167Z,8.70
2022-10-13T03:51:06.517Z,8.70
2022-10-13T03:53:10.128Z,8.70
2022-10-13T03:55:12.948Z,8.70
2022-10-13T03:57:15.786Z,8.80
2022-10-13T03:59:19.981Z,8.70
2022-10-13T04:01:23.406Z,8.70
2022-10-13T04:03:26.257Z,8.80
2022-10-13T04:05:29.109Z,8.80
2022-10-13T04:07:31.970Z,8.80
2022-10-13T04:09:34.816Z,8.80
2022-10-13T04:11:37.664Z,8.80
2022-10-13T04:13:40.562Z,8.90
2022-10-13T04:15:44.764Z,8.90
2022-10-13T04:17:47.638Z,8.90
2022-10-13T04:19:50.455Z,8.90
2022-10-13T04:21:53.313Z,8.90
2022-10-13T04:23:57.097Z,8.90
2022-10-13T04:25:59.939Z,8.90
2022-10-13T04:28:02.908Z,8.90
2022-10-13T04:30:06.957Z,8.90
2022-10-13T04:32:11.208Z,8.90
2022-10-13T04:34:14.048Z,8.90
2022-10-13T04:36:17.279Z,8.90
2022-10-13T04:38:20.146Z,8.90
2022-10-13T04:40:22.968Z,8.90
2022-10-13T04:42:25.831Z,8.90
2022-10-13T04:44:29.071Z,9.00
2022-10-13T04:46:31.976Z,9.00
2022-10-13T04:48:36.168Z,9.00
2022-10-13T04:50:39.015Z,9.10
2022-10-13T04:52:41.854Z,9.10
2022-10-13T04:54:44.877Z,9.20
2022-10-13T04:56:47.752Z,9.20
2022-10-13T04:58:50.688Z,9.30
2022-10-13T05:00:53.585Z,9.30
2022-10-13T05:02:56.560Z,9.30
2022-10-13T05:05:00.897Z,9.30
2022-10-13T05:07:17.676Z,9.40
2022-10-13T05:09:22.350Z,9.30
2022-10-13T05:11:25.448Z,9.40
2022-10-13T05:13:28.823Z,9.30
2022-10-13T05:15:31.649Z,9.40
2022-10-13T05:17:35.629Z,9.40
2022-10-13T05:19:38.655Z,9.40
2022-10-13T05:21:42.878Z,9.50
2022-10-13T05:23:46.294Z,9.40
2022-10-13T05:25:49.138Z,9.50
2022-10-13T05:27:51.997Z,9.50
2022-10-13T05:29:54.862Z,9.40
2022-10-13T05:31:57.721Z,9.40
2022-10-13T05:34:00.710Z,9.40
2022-10-13T05:36:05.941Z,9.50
2022-10-13T05:38:10.160Z,9.50
2022-10-13T05:40:13.751Z,9.50
2022-10-13T05:42:16.888Z,9.50
2022-10-13T05:44:19.845Z,9.40
2022-10-13T05:46:22.868Z,9.50
2022-10-13T05:48:25.699Z,9.50
2022-10-13T05:50:28.545Z,9.50
2022-10-13T05:52:31.412Z,9.60
2022-10-13T05:54:37.019Z,9.60
2022-10-13T05:56:41.014Z,9.60
2022-10-13T05:58:45.636Z,9.70
2022-10-13T06:00:48.461Z,9.70
2022-10-13T06:02:52.753Z,9.70
2022-10-13T06:04:56.645Z,9.70
2022-10-13T06:06:59.473Z,9.70
2022-10-13T06:09:02.333Z,9.70
2022-10-13T06:11:06.739Z,9.80
2022-10-13T06:13:09.779Z,9.80
2022-10-13T06:15:12.652Z,9.90
2022-10-13T06:17:15.461Z,9.90
2022-10-13T06:19:18.462Z,10.00
2022-10-13T06:21:21.298Z,10.00
2022-10-13T06:23:24.157Z,10.00
2022-10-13T06:25:27.196Z,10.00
2022-10-13T06:27:31.937Z,10.10
2022-10-13T06:29:34.800Z,10.10
2022-10-13T06:31:37.637Z,10.10
2022-10-13T06:33:40.513Z,10.20
2022-10-13T06:35:43.471Z,10.20
2022-10-13T06:37:48.664Z,10.20
2022-10-13T06:39:51.573Z,10.20
2022-10-13T06:41:55.309Z,10.20
2022-10-13T06:43:59.584Z,10.20
2022-10-13T06:46:02.425Z,10.30
2022-10-13T06:48:05.743Z,10.30
2022-10-13T06:50:09.090Z,10.30
2022-10-13T06:52:11.917Z,10.40
2022-10-13T06:54:14.890Z,10.40
2022-10-13T06:56:17.786Z,10.40
2022-10-13T06:58:20.662Z,10.40
2022-10-13T07:00:25.370Z,10.50
2022-10-13T07:02:28.259Z,10.50
2022-10-13T07:04:31.157Z,10.50
2022-10-13T07:06:33.988Z,10.50
2022-10-13T07:08:36.859Z,10.50
2022-10-13T07:10:39.890Z,10.60
2022-10-13T07:12:42.741Z,10.60
2022-10-13T07:14:45.601Z,10.70
2022-10-13T07:16:50.404Z,10.80
2022-10-13T07:18:53.280Z,10.90
2022-10-13T07:20:56.308Z,11.00
2022-10-13T07:22:59.242Z,11.00
2022-10-13T07:25:02.436Z,11.10
2022-10-13T07:27:07.736Z,11.20
2022-10-13T07:29:10.948Z,11.20
2022-10-13T07:31:15.642Z,11.30
2022-10-13T07:33:20.028Z,11.30
2022-10-13T07:35:30.323Z,11.40
2022-10-13T07:37:33.680Z,11.50
2022-10-13T07:39:36.514Z,11.50
2022-10-13T07:41:39.382Z,11.50
2022-10-13T07:43:42.276Z,11.60
2022-10-13T07:45:46.532Z,11.60
2022-10-13T07:47:49.413Z,11.60
2022-10-13T07:49:54.730Z,11.70
2022-10-13T07:51:57.613Z,11.70
2022-10-13T07:54:00.494Z,11.80
2022-10-13T07:56:03.363Z,11.80
2022-10-13T07:58:06.242Z,11.90
2022-10-13T08:00:10.514Z,12.00
2022-10-13T08:02:13.366Z,12.30
2022-10-13T08:04:16.237Z,12.50
2022-10-13T08:06:20.493Z,12.60
2022-10-13T08:08:23.418Z,12.70
2022-10-13T08:10:27.725Z,12.70
2022-10-13T08:12:30.584Z,12.80
2022-10-13T08:14:33.540Z,12.80
2022-10-13T08:16:38.182Z,12.90
2022-10-13T08:18:42.106Z,12.90
2022-10-13T08:20:45.722Z,13.00
2022-10-13T08:22:50.008Z,13.00
2022-10-13T08:24:52.862Z,13.00
2022-10-13T08:26:55.793Z,12.90
2022-10-13T08:29:16.586Z,13.00
2022-10-13T08:31:20.221Z,12.90
2022-10-13T08:33:23.165Z,12.80
2022-10-13T08:35:26.023Z,12.90
2022-10-13T08:37:29.176Z,12.90
2022-10-13T08:39:33.417Z,12.70
2022-10-13T08:41:38.472Z,12.70
2022-10-13T08:43:54.892Z,12.70
2022-10-13T08:46:04.169Z,12.70
2022-10-13T08:48:08.065Z,12.90
2022-10-13T08:50:13.304Z,13.00
2022-10-13T08:52:19.530Z,13.10
2022-10-13T08:54:22.662Z,13.30
2022-10-13T08:56:28.220Z,13.50
2022-10-13T08:58:32.063Z,13.70
2022-10-13T09:00:34.952Z,13.80
2022-10-13T09:02:38.965Z,13.90
2022-10-13T09:04:42.770Z,14.00
2022-10-13T09:06:46.281Z,14.10
2022-10-13T09:08:52.024Z,14.30
2022-10-13T09:10:54.863Z,14.30
2022-10-13T09:13:01.156Z,14.70
2022-10-13T09:15:06.221Z,15.10
2022-10-13T09:17:16.843Z,16.20
2022-10-13T09:19:23.334Z,16.30
2022-10-13T09:21:26.838Z,17.00
2022-10-13T09:23:29.689Z,17.20
2022-10-13T09:25:34.840Z,17.70
2022-10-13T09:27:44.813Z,17.80
2022-10-13T09:29:49.029Z,17.70
2022-10-13T09:31:51.970Z,17.50
2022-10-13T09:34:04.547Z,18.20
2022-10-13T09:36:11.081Z,18.80
2022-10-13T09:38:15.601Z,19.00
2022-10-13T09:40:21.382Z,19.20
2022-10-13T09:42:25.218Z,18.90
2022-10-13T09:44:29.001Z,19.00
2022-10-13T09:46:34.456Z,18.90
2022-10-13T09:48:37.799Z,18.20
2022-10-13T09:50:49.217Z,18.00
2022-10-13T09:52:52.204Z,17.90
2022-10-13T09:54:57.417Z,17.70
2022-10-13T09:57:02.245Z,17.10
2022-10-13T09:59:11.394Z,17.60
2022-10-13T10:01:23.253Z,18.40
2022-10-13T10:03:28.675Z,18.30
2022-10-13T10:05:38.950Z,18.00
2022-10-13T10:07:41.809Z,18.90
2022-10-13T10:09:46.199Z,18.70
2022-10-13T10:11:49.183Z,19.60
2022-10-13T10:13:53.115Z,19.60
2022-10-13T10:15:57.772Z,19.70
2022-10-13T10:18:01.912Z,20.10
2022-10-13T10:20:23.510Z,20.70
2022-10-13T10:22:31.677Z,20.20
2022-10-13T10:24:37.602Z,20.00
2022-10-13T10:26:47.296Z,20.60
2022-10-13T10:29:03.829Z,20.40
2022-10-13T10:31:11.484Z,20.30
2022-10-13T10:33:16.459Z,19.80
2022-10-13T10:35:24.991Z,18.90
2022-10-13T10:37:37.621Z,18.60
2022-10-13T10:39:42.893Z,20.30
2022-10-13T10:41:47.952Z,20.80
2022-10-13T10:43:51.893Z,21.30
2022-10-13T10:45:55.460Z,22.30
2022-10-13T10:48:00.129Z,22.40
2022-10-13T10:50:03.875Z,22.60
2022-10-13T10:52:09.534Z,21.90
2022-10-13T10:54:23.258Z,22.80
2022-10-13T10:56:30.681Z,23.40
2022-10-13T10:58:36.468Z,23.70
2022-10-13T11:00:42.254Z,23.50
2022-10-13T11:02:48.134Z,23.70
2022-10-13T11:04:51.013Z,23.20
2022-10-13T11:06:53.843Z,22.40
2022-10-13T11:08:58.226Z,22.50
2022-10-13T11:11:36.468Z,21.90
2022-10-13T11:13:50.961Z,21.50
2022-10-13T11:15:53.916Z,21.90
2022-10-13T11:17:56.749Z,22.30
2022-10-13T11:20:00.319Z,22.70
2022-10-13T11:22:14.200Z,22.60
2022-10-13T11:24:56.006Z,22.70
2022-10-13T11:26:59.893Z,22.60
2022-10-13T11:29:02.783Z,22.10
2022-10-13T11:31:30.691Z,22.00
2022-10-13T11:33:55.691Z,21.60
2022-10-13T11:35:58.578Z,20.80
2022-10-13T11:38:12.689Z,20.50
2022-10-13T11:40:24.612Z,20.40
2022-10-13T11:42:58.436Z,20.10
2022-10-13T11:45:03.420Z,20.00
2022-10-13T11:47:09.881Z,19.50
2022-10-13T11:49:43.800Z,19.20
2022-10-13T11:52:17.960Z,19.10
2022-10-13T11:54:25.030Z,18.80
2022-10-13T11:56:39.385Z,18.90
2022-10-13T11:58:43.335Z,18.70
2022-10-13T12:00:56.878Z,19.00
2022-10-13T12:02:59.783Z,19.20
2022-10-13T12:05:05.065Z,19.60
2022-10-13T12:07:08.983Z,19.50
2022-10-13T12:09:17.731Z,19.60
2022-10-13T12:11:26.162Z,19.80
2022-10-13T12:13:32.081Z,20.50
2022-10-13T12:15:36.718Z,20.80
2022-10-13T12:17:39.785Z,20.60
2022-10-13T12:19:42.663Z,20.40
2022-10-13T12:21:51.519Z,20.50
2022-10-13T12:24:06.730Z,20.00
2022-10-13T12:26:13.455Z,19.80
2022-10-13T12:28:19.248Z,19.50
2022-10-13T12:30:25.175Z,19.50
2022-10-13T12:32:30.797Z,19.20
2022-10-13T12:34:35.986Z,18.90
2022-10-13T12:36:38.858Z,18.80
2022-10-13T12:38:44.454Z,18.60
2022-10-13T12:40:47.642Z,18.40
2022-10-13T12:42:50.530Z,18.30
2022-10-13T12:44:53.400Z,18.50
2022-10-13T12:46:59.039Z,18.50
2022-10-13T12:49:05.510Z,18.60
2022-10-13T12:51:16.640Z,18.60
2022-10-13T12:53:21.859Z,19.10
2022-10-13T12:55:24.725Z,19.20
2022-10-13T12:57:35.164Z,19.10
2022-10-13T12:59:40.277Z,19.00
2022-10-13T13:01:43.161Z,18.80
2022-10-13T13:03:54.100Z,18.90
2022-10-13T13:06:31.068Z,18.80
2022-10-13T13:08:33.917Z,18.90
2022-10-13T13:10:36.828Z,18.70
2022-10-13T13:12:39.666Z,18.70
2022-10-13T13:14:43.142Z,18.60
2022-10-13T13:17:02.914Z,18.50
2022-10-13T13:19:07.135Z,18.30
2022-10-13T13:21:10.866Z,18.10
2022-10-13T13:23:13.873Z,18.00
2022-10-13T13:25:16.798Z,17.90
2022-10-13T13:27:26.797Z,17.80
2022-10-13T13:29:29.675Z,17.70
2022-10-13T13:31:32.568Z,17.60
2022-10-13T13:33:35.406Z,17.60
2022-10-13T13:35:39.747Z,17.40
2022-10-13T13:37:44.403Z,17.30
2022-10-13T13:39:47.294Z,17.30
2022-10-13T13:41:50.162Z,17.30
2022-10-13T13:43:53.058Z,17.20
2022-10-13T13:45:55.917Z,17.20
2022-10-13T13:48:00.788Z,17.20
2022-10-13T13:50:03.943Z,17.20
2022-10-13T13:52:08.431Z,17.10
2022-10-13T13:54:11.288Z,17.10
2022-10-13T13:56:14.438Z,17.20
2022-10-13T13:58:17.657Z,17.10
2022-10-13T14:00:20.589Z,17.10
2022-10-13T14:02:23.544Z,17.20
2022-10-13T14:04:26.418Z,17.20
2022-10-13T14:06:29.274Z,17.20
2022-10-13T14:08:34.058Z,17.20
2022-10-13T14:10:36.966Z,17.20
2022-10-13T14:12:39.932Z,17.20
2022-10-13T14:14:42.809Z,17.50
2022-10-13T14:16:45.665Z,17.50
2022-10-13T14:18:48.691Z,17.40
2022-10-13T14:20:51.560Z,17.40
2022-10-13T14:22:54.415Z,17.40
2022-10-13T14:24:58.679Z,17.40
2022-10-13T14:27:01.549Z,17.40
2022-10-13T14:29:04.534Z,17.30
2022-10-13T14:31:07.721Z,17.30
2022-10-13T14:33:10.674Z,17.20
2022-10-13T14:35:13.558Z,17.10
2022-10-13T14:37:19.797Z,17.10
2022-10-13T14:39:25.075Z,17.00
2022-10-13T14:41:29.362Z,17.00
2022-10-13T14:43:32.412Z,16.90
2022-10-13T14:45:35.302Z,17.00
2022-10-13T14:47:38.165Z,17.00
2022-10-13T14:49:41.062Z,17.00
2022-10-13T14:51:43.888Z,17.10
2022-10-13T14:53:46.978Z,17.30
2022-10-13T14:55:49.918Z,17.40
2022-10-13T14:57:54.193Z,17.60
2022-10-13T15:00:01.693Z,17.50
2022-10-13T15:02:05.076Z,17.40
2022-10-13T15:04:07.962Z,17.50
2022-10-13T15:06:13.306Z,17.40
2022-10-13T15:08:16.142Z,17.50
2022-10-13T15:10:19.005Z,17.60
2022-10-13T15:12:22.283Z,17.60
2022-10-13T15:14:26.836Z,17.60
2022-10-13T15:16:31.186Z,17.80
2022-10-13T15:18:34.834Z,17.80
2022-10-13T15:20:37.698Z,17.90
2022-10-13T15:22:40.533Z,17.90
2022-10-13T15:24:43.426Z,17.70
2022-10-13T15:26:46.274Z,17.40
2022-10-13T15:28:50.160Z,17.20
2022-10-13T15:30:54.604Z,17.10
2022-10-13T15:32:57.485Z,16.90
2022-10-13T15:35:00.534Z,16.70
2022-10-13T15:37:03.408Z,16.50
2022-10-13T15:39:06.832Z,16.40
2022-10-13T15:41:10.834Z,16.30
2022-10-13T15:43:13.786Z,16.20
2022-10-13T15:45:16.707Z,16.10
2022-10-13T15:47:20.943Z,16.00
2022-10-13T15:49:23.938Z,16.00
2022-10-13T15:51:26.986Z,15.80
2022-10-13T15:53:30.926Z,15.70
2022-10-13T15:55:33.813Z,15.70
2022-10-13T15:57:36.920Z,15.60
2022-10-13T15:59:39.856Z,15.60
2022-10-13T16:01:42.695Z,15.50
2022-10-13T16:03:46.891Z,15.40
2022-10-13T16:05:49.743Z,15.40
2022-10-13T16:07:52.696Z,15.30
2022-10-13T16:09:55.561Z,15.20
2022-10-13T16:11:58.416Z,15.10
2022-10-13T16:14:01.269Z,15.00
2022-10-13T16:16:04.164Z,15.00
2022-10-13T16:18:07.113Z,14.90
2022-10-13T16:20:12.838Z,14.80
2022-10-13T16:22:15.893Z,14.80
2022-10-13T16:24:18.769Z,14.80
2022-10-13T16:26:22.237Z,14.80
2022-10-13T16:28:25.212Z,14.80
2022-10-13T16:30:30.341Z,14.80
2022-10-13T16:32:38.184Z,14.70
2022-10-13T16:34:41.106Z,14.70
2022-10-13T16:36:45.300Z,14.70
2022-10-13T16:38:48.153Z,14.70
2022-10-13T16:40:51.007Z,14.60
2022-10-13T16:42:53.877Z,14.60
2022-10-13T16:44:56.989Z,14.60
2022-10-13T16:47:04.646Z,14.60
2022-10-13T16:49:07.640Z,14.60
2022-10-13T16:51:12.291Z,14.60
2022-10-13T16:53:16.509Z,14.60
2022-10-13T16:55:19.521Z,14.60
2022-10-13T16:57:22.693Z,14.50
2022-10-13T16:59:26.635Z,14.50
2022-10-13T17:01:29.611Z,14.50
2022-10-13T17:03:32.465Z,14.40
2022-10-13T17:05:35.348Z,14.40
2022-10-13T17:07:38.206Z,14.40
2022-10-13T17:09:42.910Z,14.30
2022-10-13T17:11:45.781Z,14.30
2022-10-13T17:13:48.873Z,14.30
2022-10-13T17:15:52.510Z,14.30
2022-10-13T17:17:56.361Z,14.30
2022-10-13T17:19:59.245Z,14.30
2022-10-13T17:22:02.089Z,14.40
2022-10-13T17:24:05.185Z,14.40
2022-10-13T17:26:10.366Z,14.40
2022-10-13T17:28:13.258Z,14.40
2022-10-13T17:30:16.243Z,14.40
2022-10-13T17:32:19.096Z,14.40
2022-10-13T17:34:21.969Z,14.40
2022-10-13T17:36:25.754Z,14.40
2022-10-13T17:38:28.801Z,14.40
2022-10-13T17:40:34.737Z,14.40
2022-10-13T17:42:39.407Z,14.40
2022-10-13T17:44:42.685Z,14.40
2022-10-13T17:46:45.507Z,14.50
2022-10-13T17:48:48.366Z,14.50
2022-10-13T17:50:51.196Z,14.40
2022-10-13T17:52:54.106Z,14.50
2022-10-13T17:54:56.967Z,14.40
2022-10-13T17:56:59.791Z,14.40
2022-10-13T17:59:04.387Z,14.40
2022-10-13T18:01:13.432Z,14.50
2022-10-13T18:03:16.610Z,14.50
2022-10-13T18:05:19.484Z,14.60
2022-10-13T18:07:22.719Z,14.60
2022-10-13T18:09:25.901Z,14.50
2022-10-13T18:11:29.571Z,14.50
2022-10-13T18:13:33.118Z,14.50
2022-10-13T18:15:38.198Z,14.40
2022-10-13T18:17:41.053Z,14.40
2022-10-13T18:19:43.914Z,14.30
2022-10-13T18:21:46.761Z,14.20
2022-10-13T18:23:49.724Z,14.20
2022-10-13T18:25:52.590Z,14.20
2022-10-13T18:27:55.432Z,14.20
2022-10-13T18:29:59.324Z,14.10
2022-10-13T18:32:03.539Z,14.10
2022-10-13T18:34:07.566Z,14.10
2022-10-13T18:36:15.864Z,14.00
2022-10-13T18:38:20.005Z,14.00
2022-10-13T18:40:22.921Z,13.90
2022-10-13T18:42:26.937Z,13.90
2022-10-13T18:44:29.849Z,13.90
2022-10-13T18:46:32.741Z,13.90
2022-10-13T18:48:36.987Z,13.80
2022-10-13T18:50:39.927Z,13.90
2022-10-13T18:52:42.767Z,13.80
2022-10-13T18:54:46.327Z,13.80
2022-10-13T18:56:49.221Z,13.80
2022-10-13T18:58:57.036Z,13.80
2022-10-13T19:01:02.873Z,13.80
2022-10-13T19:03:05.762Z,13.70
2022-10-13T19:05:10.792Z,13.70
2022-10-13T19:07:13.619Z,13.70
2022-10-13T19:09:17.308Z,13.60
2022-10-13T19:11:21.493Z,13.60
2022-10-13T19:13:25.584Z,13.60
2022-10-13T19:15:28.452Z,13.60
2022-10-13T19:17:31.278Z,13.60
2022-10-13T19:19:34.119Z,13.60
2022-10-13T19:21:38.582Z,13.60
2022-10-13T19:23:41.548Z,13.60
2022-10-13T19:25:44.662Z,13.60
2022-10-13T19:27:47.485Z,13.60
2022-10-13T19:29:52.872Z,13.60
2022-10-13T19:31:55.706Z,13.50
2022-10-13T19:33:58.644Z,13.50
2022-10-13T19:36:01.489Z,13.50
2022-10-13T19:38:05.673Z,13.50
2022-10-13T19:40:08.906Z,13.50
2022-10-13T19:42:11.853Z,13.50
2022-10-13T19:44:14.783Z,13.50
2022-10-13T19:46:17.686Z,13.50
2022-10-13T19:48:20.710Z,13.50
2022-10-13T19:50:23.588Z,13.50
2022-10-13T19:52:26.425Z,13.50
2022-10-13T19:54:33.934Z,13.50
2022-10-13T19:56:37.060Z,13.50
2022-10-13T19:58:40.274Z,13.50
2022-10-13T20:00:43.271Z,13.40
2022-10-13T20:02:46.175Z,13.40
2022-10-13T20:04:49.041Z,13.40
2022-10-13T20:06:52.004Z,13.40
2022-10-13T20:08:54.817Z,13.40
2022-10-13T20:11:00.632Z,13.40
2022-10-13T20:13:03.472Z,13.30
2022-10-13T20:15:06.810Z,13.30
2022-10-13T20:17:09.642Z,13.40
2022-10-13T20:19:12.684Z,13.30
2022-10-13T20:21:15.569Z,13.30
2022-10-13T20:23:18.411Z,13.30
2022-10-13T20:25:21.283Z,13.30
2022-10-13T20:27:25.542Z,13.30
2022-10-13T20:29:28.445Z,13.30
2022-10-13T20:31:31.294Z,13.30
2022-10-13T20:33:34.282Z,13.30
2022-10-13T20:35:37.146Z,13.20
2022-10-13T20:37:39.977Z,13.20
2022-10-13T20:39:42.833Z,13.20
2022-10-13T20:41:45.828Z,13.20
2022-10-13T20:43:50.486Z,13.20
2022-10-13T20:46:00.721Z,13.20
2022-10-13T20:48:03.547Z,13.20
2022-10-13T20:50:08.512Z,13.20
2022-10-13T20:52:11.369Z,13.10
2022-10-13T20:54:14.842Z,13.10
2022-10-13T20:56:18.532Z,13.10
2022-10-13T20:58:21.356Z,13.10
2022-10-13T21:00:25.608Z,13.10
2022-10-13T21:02:28.558Z,13.10
2022-10-13T21:04:31.432Z,13.10
2022-10-13T21:06:34.301Z,13.10
2022-10-13T21:08:37.163Z,13.10
2022-10-13T21:10:40.016Z,13.10
2022-10-13T21:12:42.867Z,13.10
2022-10-13T21:14:45.722Z,13.20
2022-10-13T21:16:49.946Z,13.20
2022-10-13T21:18:52.977Z,13.20
2022-10-13T21:20:55.825Z,13.20
2022-10-13T21:22:58.717Z,13.20
2022-10-13T21:25:01.562Z,13.20
2022-10-13T21:27:04.600Z,13.20
2022-10-13T21:29:07.462Z,13.20
2022-10-13T21:31:11.085Z,13.20
2022-10-13T21:33:15.274Z,13.20
2022-10-13T21:35:18.333Z,13.20
2022-10-13T21:37:21.397Z,13.20
2022-10-13T21:39:24.518Z,13.20
2022-10-13T21:41:27.604Z,13.20
2022-10-13T21:43:30.440Z,13.20
2022-10-13T21:45:33.293Z,13.10
2022-10-13T21:47:36.578Z,13.10
2022-10-13T21:49:40.800Z,13.10
2022-10-13T21:51:43.613Z,13.10
2022-10-13T21:53:49.193Z,13.10
2022-10-13T21:55:52.038Z,13.10
2022-10-13T21:57:54.888Z,13.00
2022-10-13T21:59:57.900Z,13.00
2022-10-13T22:02:00.693Z,13.00
2022-10-13T22:04:03.593Z,13.00
2022-10-13T22:06:09.104Z,13.00
2022-10-13T22:08:11.937Z,13.00
2022-10-13T22:10:14.779Z,13.00
2022-10-13T22:12:17.582Z,13.00
2022-10-13T22:14:20.493Z,13.00
2022-10-13T22:16:24.130Z,13.00
2022-10-13T22:18:27.020Z,13.00
2022-10-13T22:20:29.899Z,13.00
2022-10-13T22:22:34.084Z,13.00
2022-10-13T22:24:36.951Z,13.00
2022-10-13T22:26:41.181Z,13.00
2022-10-13T22:28:44.303Z,13.00
2022-10-13T22:30:47.228Z,13.00
2022-10-13T22:32:50.058Z,13.00
2022-10-13T22:34:52.923Z,13.00
2022-10-13T22:36:55.760Z,13.00
2022-10-13T22:39:00.639Z,13.00
2022-10-13T22:41:03.948Z,13.00
2022-10-13T22:43:06.984Z,13.00
2022-10-13T22:45:13.567Z,13.00
2022-10-13T22:47:16.436Z,12.90
2022-10-13T22:49:19.312Z,12.90
2022-10-13T22:51:22.995Z,12.90
2022-10-13T22:53:25.922Z,12.90
2022-10-13T22:55:30.152Z,12.90
2022-10-13T22:57:33.035Z,12.90
2022-10-13T22:59:36.013Z,12.90
2022-10-13T23:01:38.917Z,12.80
2022-10-13T23:03:41.945Z,12.80
2022-10-13T23:05:47.134Z,12.80
2022-10-13T23:07:49.977Z,12.80
2022-10-13T23:09:52.914Z,12.80
2022-10-13T23:11:59.820Z,12.80
2022-10-13T23:14:03.112Z,12.80
2022-10-13T23:16:06.862Z,12.80
2022-10-13T23:18:09.706Z,12.80
2022-10-13T23:20:12.936Z,12.80
2022-10-13T23:22:15.784Z,12.80
2022-10-13T23:24:18.708Z,12.80
2022-10-13T23:26:21.582Z,12.80
2022-10-13T23:28:25.864Z,12.80
2022-10-13T23:30:28.782Z,12.80
2022-10-13T23:32:31.617Z,12.80
2022-10-13T23:34:34.497Z,12.70
2022-10-13T23:36:37.338Z,12.80
2022-10-13T23:38:40.195Z,12.80
2022-10-13T23:40:43.069Z,12.70
2022-10-13T23:42:45.910Z,12.80
2022-10-13T23:44:50.121Z,12.70
2022-10-13T23:46:52.977Z,12.80
2022-10-13T23:48:55.832Z,12.80
2022-10-13T23:50:58.709Z,12.80
2022-10-13T23:53:01.555Z,12.80
2022-10-13T23:55:04.904Z,12.90
2022-10-13T23:57:07.748Z,12.90
2022-10-13T23:59:10.591Z,12.90
